createdAt,value
2018-12-20T00:02:25.669Z,0.90
2018-12-20T00:04:52.376Z,0.90
2018-12-20T00:07:19.107Z,1.00
2018-12-20T00:09:45.797Z,1.00
2018-12-20T00:12:12.530Z,1.10
2018-12-20T00:14:39.227Z,1.10
2018-12-20T00:17:11.770Z,1.10
2018-12-20T00:19:38.478Z,1.10
2018-12-20T00:22:05.384Z,1.20
2018-12-20T00:24:32.327Z,1.30
2018-12-20T00:26:59.089Z,1.40
2018-12-20T00:29:25.954Z,1.40
2018-12-20T00:31:52.757Z,1.50
2018-12-20T00:34:19.578Z,1.40
2018-12-20T00:36:46.309Z,1.40
2018-12-20T00:39:13.110Z,1.40
2018-12-20T00:41:39.996Z,1.30
2018-12-20T00:44:07.022Z,1.40
2018-12-20T00:46:33.739Z,1.40
2018-12-20T00:49:00.457Z,1.50
2018-12-20T00:51:27.175Z,1.50
2018-12-20T00:53:54.042Z,1.50
2018-12-20T00:56:20.837Z,1.60
2018-12-20T00:58:47.662Z,1.60
2018-12-20T01:01:14.506Z,1.60
2018-12-20T01:03:41.444Z,1.60
2018-12-20T01:06:08.571Z,1.60
2018-12-20T01:08:35.587Z,1.70
2018-12-20T01:11:02.521Z,1.60
2018-12-20T01:13:29.382Z,1.60
2018-12-20T01:15:56.321Z,1.60
2018-12-20T01:18:23.153Z,1.60
2018-12-20T01:20:50.020Z,1.60
2018-12-20T01:23:16.797Z,1.60
2018-12-20T01:25:43.646Z,1.60
2018-12-20T01:28:10.551Z,1.60
2018-12-20T01:30:37.563Z,1.50
2018-12-20T01:33:04.398Z,1.50
2018-12-20T01:35:31.340Z,1.50
2018-12-20T01:37:58.113Z,1.50
2018-12-20T01:40:24.998Z,1.50
2018-12-20T01:42:51.874Z,1.50
2018-12-20T01:45:18.587Z,1.50
2018-12-20T01:47:45.322Z,1.50
2018-12-20T01:50:12.022Z,1.40
2018-12-20T01:52:38.878Z,1.40
2018-12-20T01:55:05.827Z,1.40
2018-12-20T01:57:32.710Z,1.30
2018-12-20T01:59:59.445Z,1.30
2018-12-20T02:02:26.558Z,1.30
2018-12-20T02:04:53.568Z,1.40
2018-12-20T02:07:20.491Z,1.30
2018-12-20T02:09:47.263Z,1.30
2018-12-20T02:12:14.169Z,1.30
2018-12-20T02:14:41.456Z,1.30
2018-12-20T02:17:08.274Z,1.20
2018-12-20T02:19:35.398Z,1.20
2018-12-20T02:22:02.154Z,1.20
2018-12-20T02:24:28.988Z,1.10
2018-12-20T02:26:55.913Z,1.10
2018-12-20T02:29:22.695Z,1.10
2018-12-20T02:31:49.578Z,1.20
2018-12-20T02:34:16.428Z,1.30
2018-12-20T02:36:43.242Z,1.30
2018-12-20T02:39:10.382Z,1.30
2018-12-20T02:41:37.098Z,1.30
2018-12-20T02:44:03.917Z,1.40
2018-12-20T02:46:30.876Z,1.40
2018-12-20T02:48:57.812Z,1.50
2018-12-20T02:51:24.599Z,1.40
2018-12-20T02:53:51.299Z,1.40
2018-12-20T02:56:18.243Z,1.40
2018-12-20T02:58:45.068Z,1.40
2018-12-20T03:01:11.870Z,1.40
2018-12-20T03:03:38.664Z,1.40
2018-12-20T03:06:05.755Z,1.40
2018-12-20T03:08:32.545Z,1.30
2018-12-20T03:10:59.391Z,1.40
2018-12-20T03:13:26.181Z,1.30
2018-12-20T03:15:52.910Z,1.40
2018-12-20T03:18:19.791Z,1.40
2018-12-20T03:20:46.752Z,1.40
2018-12-20T03:23:13.690Z,1.50
2018-12-20T03:25:40.521Z,1.50
2018-12-20T03:28:07.387Z,1.40
2018-12-20T03:30:34.139Z,1.40
2018-12-20T03:33:01.157Z,1.40
2018-12-20T03:35:28.172Z,1.40
2018-12-20T03:37:55.049Z,1.40
2018-12-20T03:40:21.867Z,1.40
2018-12-20T03:42:48.606Z,1.40
2018-12-20T03:45:15.493Z,1.40
2018-12-20T03:47:42.487Z,1.40
2018-12-20T03:50:09.796Z,1.40
2018-12-20T03:52:36.737Z,1.30
2018-12-20T03:55:03.713Z,1.40
2018-12-20T03:57:30.669Z,1.40
2018-12-20T03:59:57.531Z,1.40
2018-12-20T04:02:24.647Z,1.50
2018-12-20T04:04:51.342Z,1.50
2018-12-20T04:07:18.277Z,1.50
2018-12-20T04:09:45.144Z,1.50
2018-12-20T04:12:11.928Z,1.50
2018-12-20T04:14:38.626Z,1.50
2018-12-20T04:17:05.522Z,1.50
2018-12-20T04:19:32.370Z,1.50
2018-12-20T04:21:59.374Z,1.50
2018-12-20T04:24:26.230Z,1.40
2018-12-20T04:26:53.215Z,1.40
2018-12-20T04:29:20.079Z,1.40
2018-12-20T04:31:47.025Z,1.40
2018-12-20T04:34:13.998Z,1.40
2018-12-20T04:36:41.141Z,1.30
2018-12-20T04:39:07.838Z,1.30
2018-12-20T04:41:34.656Z,1.30
2018-12-20T04:44:01.590Z,1.30
2018-12-20T04:46:28.719Z,1.30
2018-12-20T04:48:55.614Z,1.30
2018-12-20T04:51:22.504Z,1.20
2018-12-20T04:53:49.405Z,1.10
2018-12-20T04:56:16.175Z,1.10
2018-12-20T04:58:43.138Z,1.10
2018-12-20T05:01:09.878Z,1.10
2018-12-20T05:03:36.807Z,1.10
2018-12-20T05:06:03.611Z,1.10
2018-12-20T05:08:30.544Z,1.10
2018-12-20T05:10:57.366Z,1.10
2018-12-20T05:13:24.085Z,1.00
2018-12-20T05:15:55.997Z,1.00
2018-12-20T05:18:19.626Z,1.00
2018-12-20T05:20:46.355Z,1.00
2018-12-20T05:23:13.111Z,1.00
2018-12-20T05:25:39.945Z,0.90
2018-12-20T05:28:08.446Z,1.00
2018-12-20T05:30:35.159Z,0.90
2018-12-20T05:33:01.972Z,0.90
2018-12-20T05:35:28.837Z,0.90
2018-12-20T05:37:55.588Z,0.80
2018-12-20T05:40:22.401Z,0.80
2018-12-20T05:42:49.258Z,0.80
2018-12-20T05:45:16.234Z,0.80
2018-12-20T05:47:42.995Z,0.80
2018-12-20T05:50:09.808Z,0.80
2018-12-20T05:52:36.840Z,0.80
2018-12-20T05:55:03.562Z,0.80
2018-12-20T05:57:30.414Z,0.80
2018-12-20T05:59:57.412Z,0.90
2018-12-20T06:02:24.439Z,0.90
2018-12-20T06:04:51.342Z,0.90
2018-12-20T06:07:18.106Z,0.90
2018-12-20T06:09:44.795Z,1.00
2018-12-20T06:12:11.549Z,1.00
2018-12-20T06:14:38.360Z,1.00
2018-12-20T06:17:05.188Z,1.00
2018-12-20T06:19:32.142Z,1.00
2018-12-20T06:21:59.028Z,1.00
2018-12-20T06:24:25.754Z,1.00
2018-12-20T06:26:52.451Z,1.00
2018-12-20T06:29:19.187Z,1.00
2018-12-20T06:31:45.891Z,1.10
2018-12-20T06:34:12.622Z,1.00
2018-12-20T06:36:39.323Z,1.00
2018-12-20T06:39:06.703Z,1.00
2018-12-20T06:41:33.431Z,1.00
2018-12-20T06:44:07.173Z,0.90
2018-12-20T06:46:28.889Z,0.90
2018-12-20T06:48:55.626Z,0.90
2018-12-20T06:51:22.322Z,0.90
2018-12-20T06:53:49.026Z,0.90
2018-12-20T06:56:15.738Z,0.90
2018-12-20T06:58:42.961Z,0.90
2018-12-20T07:01:09.660Z,0.90
2018-12-20T07:03:36.368Z,0.90
2018-12-20T07:06:03.091Z,0.90
2018-12-20T07:08:29.827Z,0.90
2018-12-20T07:10:56.518Z,0.90
2018-12-20T07:13:23.209Z,0.90
2018-12-20T07:15:49.938Z,1.00
2018-12-20T07:18:16.673Z,1.00
2018-12-20T07:20:43.403Z,1.00
2018-12-20T07:23:10.122Z,1.10
2018-12-20T07:25:36.821Z,1.10
2018-12-20T07:28:03.551Z,1.20
2018-12-20T07:30:30.241Z,1.20
2018-12-20T07:32:56.962Z,1.30
2018-12-20T07:35:30.635Z,1.30
2018-12-20T07:37:57.367Z,1.40
2018-12-20T07:40:24.062Z,1.40
2018-12-20T07:42:50.790Z,1.40
2018-12-20T07:45:17.489Z,1.50
2018-12-20T07:47:44.218Z,1.50
2018-12-20T07:50:10.958Z,1.50
2018-12-20T07:52:37.650Z,1.50
2018-12-20T07:55:04.379Z,1.50
2018-12-20T07:57:31.123Z,1.60
2018-12-20T07:59:57.830Z,1.70
2018-12-20T08:02:24.530Z,1.70
2018-12-20T08:04:51.260Z,1.80
2018-12-20T08:07:17.951Z,1.90
2018-12-20T08:09:44.677Z,2.00
2018-12-20T08:12:11.362Z,2.10
2018-12-20T08:14:38.099Z,2.10
2018-12-20T08:17:04.802Z,2.10
2018-12-20T08:19:36.284Z,2.20
2018-12-20T08:22:02.205Z,2.30
2018-12-20T08:24:28.954Z,2.30
2018-12-20T08:26:55.666Z,2.40
2018-12-20T08:29:22.358Z,2.30
2018-12-20T08:31:49.087Z,2.30
2018-12-20T08:34:15.799Z,2.30
2018-12-20T08:36:42.726Z,2.20
2018-12-20T08:39:09.454Z,2.30
2018-12-20T08:41:36.180Z,2.40
2018-12-20T08:44:02.938Z,2.50
2018-12-20T08:46:31.687Z,2.60
2018-12-20T08:48:58.398Z,2.70
2018-12-20T08:51:25.134Z,2.80
2018-12-20T08:53:51.867Z,2.90
2018-12-20T08:56:18.559Z,3.00
2018-12-20T08:58:45.291Z,3.00
2018-12-20T09:01:11.990Z,3.00
2018-12-20T09:03:38.715Z,3.10
2018-12-20T09:06:05.412Z,3.10
2018-12-20T09:08:32.130Z,3.10
2018-12-20T09:10:58.824Z,3.10
2018-12-20T09:13:25.550Z,3.10
2018-12-20T09:15:52.241Z,3.10
2018-12-20T09:18:19.000Z,3.20
2018-12-20T09:20:45.755Z,3.20
2018-12-20T09:23:12.454Z,3.40
2018-12-20T09:25:39.172Z,3.50
2018-12-20T09:28:05.877Z,3.70
2018-12-20T09:30:33.455Z,4.10
2018-12-20T09:33:00.151Z,4.30
2018-12-20T09:35:26.866Z,4.50
2018-12-20T09:37:53.566Z,4.70
2018-12-20T09:40:20.290Z,4.80
2018-12-20T09:42:46.987Z,4.90
2018-12-20T09:45:14.014Z,5.00
2018-12-20T09:47:46.608Z,5.10
2018-12-20T09:50:13.327Z,5.40
2018-12-20T09:52:40.018Z,5.50
2018-12-20T09:55:06.739Z,5.60
2018-12-20T09:57:33.446Z,5.70
2018-12-20T10:00:00.299Z,5.60
2018-12-20T10:02:26.991Z,5.70
2018-12-20T10:04:53.723Z,5.70
2018-12-20T10:07:20.649Z,5.60
2018-12-20T10:09:47.367Z,5.60
2018-12-20T10:12:14.070Z,5.50
2018-12-20T10:14:40.791Z,5.40
2018-12-20T10:17:07.482Z,5.40
2018-12-20T10:19:34.179Z,5.30
2018-12-20T10:22:00.906Z,5.10
2018-12-20T10:24:27.604Z,5.00
2018-12-20T10:26:54.334Z,4.80
2018-12-20T10:29:21.028Z,4.70
2018-12-20T10:31:47.755Z,4.60
2018-12-20T10:34:14.452Z,4.60
2018-12-20T10:36:41.184Z,4.60
2018-12-20T10:39:07.874Z,4.70
2018-12-20T10:41:34.602Z,4.90
2018-12-20T10:44:01.290Z,5.20
2018-12-20T10:46:28.011Z,5.60
2018-12-20T10:48:54.731Z,5.90
2018-12-20T10:51:21.474Z,6.00
2018-12-20T10:53:48.166Z,5.80
2018-12-20T10:56:14.883Z,5.70
2018-12-20T10:58:41.587Z,5.40
2018-12-20T11:01:14.235Z,5.10
2018-12-20T11:03:47.154Z,5.00
2018-12-20T11:06:19.741Z,4.90
2018-12-20T11:08:52.432Z,5.20
2018-12-20T11:11:20.034Z,5.30
2018-12-20T11:13:46.734Z,5.00
2018-12-20T11:16:13.462Z,4.80
2018-12-20T11:18:40.180Z,4.70
2018-12-20T11:21:06.900Z,4.60
2018-12-20T11:23:33.794Z,4.50
2018-12-20T11:26:00.536Z,4.40
2018-12-20T11:28:27.238Z,4.40
2018-12-20T11:30:53.961Z,4.30
2018-12-20T11:33:20.871Z,4.20
2018-12-20T11:35:47.606Z,4.10
2018-12-20T11:38:14.294Z,4.10
2018-12-20T11:40:41.007Z,4.10
2018-12-20T11:43:07.732Z,4.10
2018-12-20T11:45:34.459Z,4.10
2018-12-20T11:48:01.450Z,4.10
2018-12-20T11:50:28.198Z,4.10
2018-12-20T11:52:54.923Z,4.10
2018-12-20T11:55:21.617Z,4.10
2018-12-20T11:57:48.338Z,4.10
2018-12-20T12:00:15.162Z,4.10
2018-12-20T12:02:41.895Z,4.20
2018-12-20T12:05:08.591Z,4.20
2018-12-20T12:07:35.314Z,4.30
2018-12-20T12:10:02.016Z,4.20
2018-12-20T12:12:28.754Z,4.20
2018-12-20T12:14:55.454Z,4.10
2018-12-20T12:17:22.183Z,4.10
2018-12-20T12:19:48.882Z,4.10
2018-12-20T12:22:15.606Z,4.00
2018-12-20T12:24:42.303Z,4.00
2018-12-20T12:27:09.134Z,4.00
2018-12-20T12:29:35.846Z,4.00
2018-12-20T12:32:02.562Z,4.00
2018-12-20T12:34:29.258Z,4.10
2018-12-20T12:36:56.066Z,4.10
2018-12-20T12:39:22.759Z,4.10
2018-12-20T12:41:49.472Z,4.10
2018-12-20T12:44:16.163Z,4.20
2018-12-20T12:46:42.882Z,4.20
2018-12-20T12:49:09.565Z,4.10
2018-12-20T12:51:36.282Z,4.20
2018-12-20T12:54:02.974Z,4.30
2018-12-20T12:56:29.710Z,4.40
2018-12-20T12:58:56.395Z,4.40
2018-12-20T13:01:23.086Z,4.50
2018-12-20T13:03:49.810Z,4.50
2018-12-20T13:06:16.494Z,4.60
2018-12-20T13:08:43.234Z,4.60
2018-12-20T13:11:09.935Z,4.70
2018-12-20T13:13:36.650Z,4.70
2018-12-20T13:16:03.375Z,4.80
2018-12-20T13:18:30.088Z,4.80
2018-12-20T13:20:56.778Z,4.80
2018-12-20T13:23:25.529Z,4.80
2018-12-20T13:25:52.202Z,4.80
2018-12-20T13:28:18.919Z,4.70
2018-12-20T13:30:45.606Z,4.70
2018-12-20T13:33:12.546Z,4.60
2018-12-20T13:35:39.327Z,4.60
2018-12-20T13:38:06.050Z,4.60
2018-12-20T13:40:32.741Z,4.60
2018-12-20T13:42:59.458Z,4.60
2018-12-20T13:45:26.154Z,4.60
2018-12-20T13:47:52.870Z,4.70
2018-12-20T13:50:19.558Z,4.70
2018-12-20T13:52:46.275Z,4.70
2018-12-20T13:55:12.997Z,4.60
2018-12-20T13:57:39.750Z,4.60
2018-12-20T14:00:07.378Z,4.60
2018-12-20T14:02:34.148Z,4.70
2018-12-20T14:05:00.937Z,4.70
2018-12-20T14:07:27.681Z,4.70
2018-12-20T14:09:54.758Z,4.70
2018-12-20T14:12:21.547Z,4.70
2018-12-20T14:14:48.286Z,4.80
2018-12-20T14:17:14.978Z,4.90
2018-12-20T14:19:41.686Z,4.90
2018-12-20T14:22:08.379Z,5.00
2018-12-20T14:24:35.102Z,5.00
2018-12-20T14:27:01.787Z,5.00
2018-12-20T14:29:28.506Z,5.00
2018-12-20T14:31:55.198Z,5.00
2018-12-20T14:34:21.942Z,5.00
2018-12-20T14:36:48.646Z,5.00
2018-12-20T14:39:15.372Z,5.00
2018-12-20T14:41:42.075Z,4.90
2018-12-20T14:44:08.794Z,4.90
2018-12-20T14:46:35.495Z,4.90
2018-12-20T14:49:02.230Z,4.90
2018-12-20T14:51:28.934Z,4.90
2018-12-20T14:53:55.662Z,4.90
2018-12-20T14:56:22.355Z,4.90
2018-12-20T14:58:49.084Z,4.80
2018-12-20T15:01:15.783Z,4.80
2018-12-20T15:03:42.514Z,4.90
2018-12-20T15:06:09.211Z,4.90
2018-12-20T15:08:35.951Z,4.90
2018-12-20T15:11:02.654Z,4.90
2018-12-20T15:13:29.686Z,4.90
2018-12-20T15:15:56.558Z,4.90
2018-12-20T15:18:23.284Z,4.90
2018-12-20T15:20:50.001Z,4.90
2018-12-20T15:23:17.102Z,4.80
2018-12-20T15:25:43.826Z,4.80
2018-12-20T15:28:10.532Z,4.80
2018-12-20T15:30:37.254Z,4.80
2018-12-20T15:33:03.982Z,4.80
2018-12-20T15:35:30.680Z,4.80
2018-12-20T15:37:57.430Z,4.80
2018-12-20T15:40:24.121Z,4.80
2018-12-20T15:42:50.838Z,4.80
2018-12-20T15:45:17.531Z,4.80
2018-12-20T15:47:44.250Z,4.80
2018-12-20T15:50:12.196Z,4.80
2018-12-20T15:52:39.099Z,4.80
2018-12-20T15:55:06.011Z,4.90
2018-12-20T15:57:32.706Z,4.90
2018-12-20T15:59:59.431Z,4.90
2018-12-20T16:02:28.191Z,4.90
2018-12-20T16:04:54.861Z,4.90
2018-12-20T16:07:21.554Z,4.90
2018-12-20T16:09:48.282Z,4.90
2018-12-20T16:12:15.086Z,4.90
2018-12-20T16:14:41.807Z,4.90
2018-12-20T16:17:08.518Z,4.80
2018-12-20T16:19:35.199Z,4.90
2018-12-20T16:22:01.990Z,4.80
2018-12-20T16:24:28.676Z,4.80
2018-12-20T16:26:55.390Z,4.80
2018-12-20T16:29:22.114Z,4.80
2018-12-20T16:31:48.808Z,4.80
2018-12-20T16:34:15.526Z,4.80
2018-12-20T16:36:42.243Z,4.80
2018-12-20T16:39:08.967Z,4.80
2018-12-20T16:41:35.699Z,4.80
2018-12-20T16:44:02.394Z,4.80
2018-12-20T16:46:29.122Z,4.90
2018-12-20T16:48:55.823Z,4.90
2018-12-20T16:51:22.517Z,4.90
2018-12-20T16:53:49.229Z,4.90
2018-12-20T16:56:15.926Z,4.90
2018-12-20T16:58:42.962Z,5.00
2018-12-20T17:01:09.750Z,4.90
2018-12-20T17:03:36.475Z,4.90
2018-12-20T17:06:03.161Z,4.90
2018-12-20T17:08:29.871Z,4.90
2018-12-20T17:10:56.562Z,4.90
2018-12-20T17:13:23.294Z,4.90
2018-12-20T17:15:49.982Z,4.90
2018-12-20T17:18:16.711Z,4.90
2018-12-20T17:20:43.438Z,4.90
2018-12-20T17:23:10.225Z,4.90
2018-12-20T17:25:37.616Z,4.90
2018-12-20T17:28:04.343Z,4.90
2018-12-20T17:30:31.075Z,4.90
2018-12-20T17:32:57.771Z,4.90
2018-12-20T17:35:24.490Z,4.90
2018-12-20T17:37:51.182Z,4.90
2018-12-20T17:40:17.905Z,4.90
2018-12-20T17:42:44.603Z,4.90
2018-12-20T17:45:11.312Z,4.90
2018-12-20T17:47:38.141Z,4.90
2018-12-20T17:50:05.194Z,4.90
2018-12-20T17:52:31.907Z,4.90
2018-12-20T17:54:58.617Z,4.80
2018-12-20T17:57:25.331Z,4.90
2018-12-20T17:59:52.019Z,4.80
2018-12-20T18:02:18.728Z,4.80
2018-12-20T18:04:45.833Z,4.80
2018-12-20T18:07:12.523Z,4.80
2018-12-20T18:09:39.217Z,4.80
2018-12-20T18:12:05.914Z,4.80
2018-12-20T18:14:32.626Z,4.80
2018-12-20T18:16:59.319Z,4.80
2018-12-20T18:19:26.023Z,4.80
2018-12-20T18:21:52.719Z,4.80
2018-12-20T18:24:19.446Z,4.80
2018-12-20T18:26:46.346Z,4.80
2018-12-20T18:29:13.215Z,4.80
2018-12-20T18:31:40.014Z,4.70
2018-12-20T18:34:06.856Z,4.70
2018-12-20T18:36:33.839Z,4.60
2018-12-20T18:39:01.002Z,4.60
2018-12-20T18:41:28.167Z,4.60
2018-12-20T18:43:55.211Z,4.60
2018-12-20T18:46:21.906Z,4.60
2018-12-20T18:48:48.606Z,4.60
2018-12-20T18:51:15.304Z,4.60
2018-12-20T18:53:41.986Z,4.50
2018-12-20T18:56:08.703Z,4.50
2018-12-20T18:58:35.393Z,4.40
2018-12-20T19:01:02.115Z,4.40
2018-12-20T19:03:28.814Z,4.40
2018-12-20T19:05:55.522Z,4.40
2018-12-20T19:08:22.218Z,4.40
2018-12-20T19:10:48.919Z,4.50
2018-12-20T19:13:15.618Z,4.60
2018-12-20T19:15:42.337Z,4.60
2018-12-20T19:18:09.037Z,4.70
2018-12-20T19:20:35.751Z,4.70
2018-12-20T19:23:02.468Z,4.80
2018-12-20T19:25:29.451Z,4.80
2018-12-20T19:27:56.144Z,4.90
2018-12-20T19:30:22.848Z,4.90
2018-12-20T19:32:49.546Z,4.90
2018-12-20T19:35:16.251Z,4.90
2018-12-20T19:37:42.955Z,4.90
2018-12-20T19:40:10.435Z,4.90
2018-12-20T19:42:37.138Z,4.90
2018-12-20T19:45:03.892Z,4.90
2018-12-20T19:47:30.667Z,4.90
2018-12-20T19:50:04.829Z,4.80
2018-12-20T19:52:27.850Z,4.80
2018-12-20T19:54:55.866Z,4.80
2018-12-20T19:57:24.379Z,4.80
2018-12-20T19:59:52.799Z,4.80
2018-12-20T20:02:21.435Z,4.70
2018-12-20T20:04:50.269Z,4.80
2018-12-20T20:07:17.760Z,4.70
2018-12-20T20:09:45.602Z,4.80
2018-12-20T20:12:12.955Z,4.70
2018-12-20T20:14:40.902Z,4.80
2018-12-20T20:17:07.974Z,4.80
2018-12-20T20:19:35.094Z,4.70
2018-12-20T20:22:02.689Z,4.70
2018-12-20T20:24:29.626Z,4.70
2018-12-20T20:26:56.531Z,4.70
2018-12-20T20:29:23.330Z,4.60
2018-12-20T20:31:50.057Z,4.60
2018-12-20T20:34:17.274Z,4.50
2018-12-20T20:36:43.980Z,4.50
2018-12-20T20:39:10.705Z,4.50
2018-12-20T20:41:37.398Z,4.50
2018-12-20T20:44:04.134Z,4.40
2018-12-20T20:46:30.831Z,4.40
2018-12-20T20:48:57.559Z,4.40
2018-12-20T20:51:24.255Z,4.40
2018-12-20T20:53:50.982Z,4.40
2018-12-20T20:56:17.674Z,4.40
2018-12-20T20:58:44.395Z,4.40
2018-12-20T21:01:11.092Z,4.30
2018-12-20T21:03:37.822Z,4.30
2018-12-20T21:06:04.542Z,4.20
2018-12-20T21:08:31.563Z,4.20
2018-12-20T21:10:58.250Z,4.10
2018-12-20T21:13:24.974Z,4.10
2018-12-20T21:15:51.663Z,4.00
2018-12-20T21:18:18.382Z,4.00
2018-12-20T21:20:45.088Z,4.00
2018-12-20T21:23:11.817Z,4.00
2018-12-20T21:25:38.519Z,4.00
2018-12-20T21:28:05.362Z,4.00
2018-12-20T21:30:39.107Z,4.00
2018-12-20T21:33:05.866Z,3.90
2018-12-20T21:35:32.587Z,3.90
2018-12-20T21:37:59.311Z,4.00
2018-12-20T21:40:26.010Z,4.00
2018-12-20T21:42:52.731Z,4.10
2018-12-20T21:45:19.450Z,4.10
2018-12-20T21:47:46.177Z,4.20
2018-12-20T21:50:13.377Z,4.20
2018-12-20T21:52:40.090Z,4.30
2018-12-20T21:55:07.255Z,4.30
2018-12-20T21:57:33.959Z,4.30
2018-12-20T22:00:01.752Z,4.40
2018-12-20T22:02:28.614Z,4.40
2018-12-20T22:04:55.350Z,4.40
2018-12-20T22:07:22.039Z,4.40
2018-12-20T22:09:48.759Z,4.40
2018-12-20T22:12:16.533Z,4.40
2018-12-20T22:14:43.386Z,4.40
2018-12-20T22:17:10.162Z,4.40
2018-12-20T22:19:36.906Z,4.40
2018-12-20T22:22:03.602Z,4.40
2018-12-20T22:24:30.315Z,4.40
2018-12-20T22:26:57.015Z,4.50
2018-12-20T22:29:23.748Z,4.50
2018-12-20T22:31:50.467Z,4.50
2018-12-20T22:34:17.183Z,4.50
2018-12-20T22:36:43.888Z,4.50
2018-12-20T22:39:10.623Z,4.50
2018-12-20T22:41:37.324Z,4.50
2018-12-20T22:44:04.050Z,4.60
2018-12-20T22:46:30.750Z,4.60
2018-12-20T22:48:57.482Z,4.60
2018-12-20T22:51:24.188Z,4.60
2018-12-20T22:53:50.909Z,4.60
2018-12-20T22:56:17.610Z,4.60
2018-12-20T22:58:44.359Z,4.70
2018-12-20T23:01:11.059Z,4.70
2018-12-20T23:03:37.825Z,4.70
2018-12-20T23:06:04.635Z,4.80
2018-12-20T23:08:31.366Z,4.80
2018-12-20T23:10:58.066Z,4.80
2018-12-20T23:13:24.801Z,4.90
2018-12-20T23:15:51.801Z,4.80
2018-12-20T23:18:20.435Z,4.80
2018-12-20T23:20:47.130Z,4.80
2018-12-20T23:23:13.814Z,4.70
2018-12-20T23:25:40.647Z,4.60
2018-12-20T23:28:07.444Z,4.60
2018-12-20T23:30:34.166Z,4.60
2018-12-20T23:33:00.871Z,4.60
2018-12-20T23:35:27.586Z,4.50
2018-12-20T23:37:54.280Z,4.50
2018-12-20T23:40:21.009Z,4.50
2018-12-20T23:42:47.707Z,4.40
2018-12-20T23:45:14.418Z,4.40
2018-12-20T23:47:41.139Z,4.40
2018-12-20T23:50:07.864Z,4.40
2018-12-20T23:52:34.562Z,4.40
2018-12-20T23:55:01.288Z,4.40
2018-12-20T23:57:28.791Z,4.30
2018-12-20T23:59:55.519Z,4.40
